createdAt,value
2018-02-23T00:06:33.498Z,64.4
2018-02-23T00:23:05.671Z,64.0
2018-02-23T00:56:12.405Z,65.2
2018-02-23T01:12:44.023Z,64.8
2018-02-23T01:29:16.751Z,65.6
2018-02-23T01:45:48.966Z,66.4
2018-02-23T02:18:54.160Z,67.2
2018-02-23T02:35:26.649Z,68.8
2018-02-23T02:51:59.648Z,68.0
2018-02-23T03:25:04.738Z,69.2
2018-02-23T03:41:36.925Z,69.6
2018-02-23T03:58:09.568Z,70.4
2018-02-23T04:14:41.715Z,71.2
2018-02-23T04:31:13.630Z,71.6
2018-02-23T04:47:45.551Z,72.0
2018-02-23T05:20:49.562Z,71.2
2018-02-23T05:37:21.351Z,71.2
2018-02-23T05:53:53.491Z,71.2
2018-02-23T06:10:25.274Z,70.8
2018-02-23T06:26:57.437Z,70.4
2018-02-23T07:00:00.752Z,69.6
2018-02-23T07:33:04.383Z,68.8
2018-02-23T07:49:36.178Z,68.4
2018-02-23T08:14:24.778Z,63.6
2018-02-23T08:30:56.983Z,62.4
2018-02-23T08:47:30.069Z,60.0
2018-02-23T09:04:04.266Z,60.4
2018-02-23T09:20:36.856Z,59.6
2018-02-23T09:37:09.900Z,57.6
2018-02-23T09:53:43.399Z,59.2
2018-02-23T10:00:20.314Z,56.8
2018-02-23T10:16:53.786Z,56.0
2018-02-23T10:23:31.602Z,53.2
2018-02-23T10:36:45.680Z,54.0
2018-02-23T10:40:04.454Z,51.6
2018-02-23T10:50:00.991Z,49.6
2018-02-23T10:53:19.309Z,51.6
2018-02-23T11:09:53.757Z,48.8
2018-02-23T11:26:27.824Z,48.0
2018-02-23T11:59:35.682Z,48.0
2018-02-23T12:16:10.131Z,48.8
2018-02-23T12:32:44.545Z,48.8
2018-02-23T12:49:18.712Z,48.0
2018-02-23T13:05:53.485Z,48.0
2018-02-23T13:22:27.832Z,47.2
2018-02-23T13:39:02.341Z,46.8
2018-02-23T13:55:37.164Z,46.4
2018-02-23T14:12:11.361Z,44.8
2018-02-23T14:28:45.961Z,46.4
2018-02-23T14:45:20.395Z,46.0
2018-02-23T15:01:55.056Z,46.0
2018-02-23T15:18:29.021Z,46.0
2018-02-23T15:35:04.418Z,46.8
2018-02-23T15:51:36.910Z,48.0
2018-02-23T16:08:10.347Z,48.4
2018-02-23T16:24:43.655Z,48.8
2018-02-23T16:41:16.894Z,50.0
2018-02-23T16:57:50.206Z,50.4
2018-02-23T17:14:23.377Z,51.6
2018-02-23T17:30:55.947Z,51.6
2018-02-23T17:47:29.167Z,52.8
2018-02-23T18:04:01.407Z,53.6
2018-02-23T18:20:34.276Z,54.4
2018-02-23T18:37:06.893Z,55.6
2018-02-23T19:10:11.617Z,56.4
2018-02-23T19:26:44.942Z,56.8
2018-02-23T19:43:16.418Z,57.2
2018-02-23T19:59:49.184Z,56.8
2018-02-23T20:16:20.585Z,56.8
2018-02-23T20:32:52.947Z,56.4
2018-02-23T20:49:23.681Z,56.0
2018-02-23T21:05:55.324Z,55.6
2018-02-23T21:22:26.950Z,54.8
2018-02-23T21:38:58.591Z,54.4
2018-02-23T21:55:32.616Z,54.4
2018-02-23T22:12:04.088Z,54.4
2018-02-23T22:28:35.468Z,54.0
2018-02-23T22:45:02.749Z,54.0
2018-02-23T23:01:34.807Z,54.0
2018-02-23T23:18:05.466Z,54.0
2018-02-23T23:34:36.495Z,54.0
